sensor_id;sensor_type;location;lat;lon;timestamp;temperature;humidity
30893;DHT22;17595;50.884;4.346;2023-02-28T00:00:28;5.40;99.90
30893;DHT22;17595;50.884;4.346;2023-02-28T00:02:54;5.40;99.90
30893;DHT22;17595;50.884;4.346;2023-02-28T00:05:22;5.40;99.90
30893;DHT22;17595;50.884;4.346;2023-02-28T00:07:48;5.40;99.90
30893;DHT22;17595;50.884;4.346;2023-02-28T00:10:17;5.50;99.90
30893;DHT22;17595;50.884;4.346;2023-02-28T00:12:50;5.40;99.90
30893;DHT22;17595;50.884;4.346;2023-02-28T00:15:16;5.30;99.90
30893;DHT22;17595;50.884;4.346;2023-02-28T00:17:42;5.30;99.90
30893;DHT22;17595;50.884;4.346;2023-02-28T00:20:09;5.30;99.90
30893;DHT22;17595;50.884;4.346;2023-02-28T00:22:42;5.30;99.90
30893;DHT22;17595;50.884;4.346;2023-02-28T00:25:09;5.30;99.90
30893;DHT22;17595;50.884;4.346;2023-02-28T00:27:36;5.20;99.90
30893;DHT22;17595;50.884;4.346;2023-02-28T00:30:02;5.20;99.90
30893;DHT22;17595;50.884;4.346;2023-02-28T00:32:28;5.20;99.90
30893;DHT22;17595;50.884;4.346;2023-02-28T00:34:53;5.20;99.90
30893;DHT22;17595;50.884;4.346;2023-02-28T00:37:19;5.30;99.90
30893;DHT22;17595;50.884;4.346;2023-02-28T00:39:45;5.30;99.90
30893;DHT22;17595;50.884;4.346;2023-02-28T00:42:10;5.30;99.90
30893;DHT22;17595;50.884;4.346;2023-02-28T00:44:36;5.30;99.90
30893;DHT22;17595;50.884;4.346;2023-02-28T00:47:01;5.20;99.90
30893;DHT22;17595;50.884;4.346;2023-02-28T00:49:27;5.20;99.90
30893;DHT22;17595;50.884;4.346;2023-02-28T00:51:54;5.10;99.90
30893;DHT22;17595;50.884;4.346;2023-02-28T00:54:21;5.10;99.90
30893;DHT22;17595;50.884;4.346;2023-02-28T00:56:47;5.10;99.90
30893;DHT22;17595;50.884;4.346;2023-02-28T00:59:14;5.10;99.90
30893;DHT22;17595;50.884;4.346;2023-02-28T01:01:40;5.10;99.90
30893;DHT22;17595;50.884;4.346;2023-02-28T01:04:05;5.10;99.90
30893;DHT22;17595;50.884;4.346;2023-02-28T01:06:31;5.10;99.90
30893;DHT22;17595;50.884;4.346;2023-02-28T01:08:57;5.10;99.90
30893;DHT22;17595;50.884;4.346;2023-02-28T01:11:24;5.00;99.90
30893;DHT22;17595;50.884;4.346;2023-02-28T01:13:49;5.00;99.90
30893;DHT22;17595;50.884;4.346;2023-02-28T01:16:15;5.00;99.90
30893;DHT22;17595;50.884;4.346;2023-02-28T01:18:41;5.00;99.90
30893;DHT22;17595;50.884;4.346;2023-02-28T01:21:09;5.00;99.90
30893;DHT22;17595;50.884;4.346;2023-02-28T01:23:35;5.00;99.90
30893;DHT22;17595;50.884;4.346;2023-02-28T01:26:08;5.00;99.90
30893;DHT22;17595;50.884;4.346;2023-02-28T01:28:34;5.00;99.90
30893;DHT22;17595;50.884;4.346;2023-02-28T01:31:00;4.90;99.90
30893;DHT22;17595;50.884;4.346;2023-02-28T01:33:26;4.90;99.90
30893;DHT22;17595;50.884;4.346;2023-02-28T01:36:09;4.90;99.90
30893;DHT22;17595;50.884;4.346;2023-02-28T01:38:35;4.80;99.90
30893;DHT22;17595;50.884;4.346;2023-02-28T01:41:01;4.90;99.90
30893;DHT22;17595;50.884;4.346;2023-02-28T01:43:52;4.80;99.90
30893;DHT22;17595;50.884;4.346;2023-02-28T01:46:14;4.80;99.90
30893;DHT22;17595;50.884;4.346;2023-02-28T01:48:46;4.90;99.90
30893;DHT22;17595;50.884;4.346;2023-02-28T01:51:22;4.80;99.90
30893;DHT22;17595;50.884;4.346;2023-02-28T01:53:53;4.80;99.90
30893;DHT22;17595;50.884;4.346;2023-02-28T01:56:24;4.80;99.90
30893;DHT22;17595;50.884;4.346;2023-02-28T01:58:53;4.80;99.90
30893;DHT22;17595;50.884;4.346;2023-02-28T02:01:20;4.80;99.90
30893;DHT22;17595;50.884;4.346;2023-02-28T02:03:52;4.80;99.90
30893;DHT22;17595;50.884;4.346;2023-02-28T02:06:22;4.80;99.90
30893;DHT22;17595;50.884;4.346;2023-02-28T02:08:48;4.80;99.90
30893;DHT22;17595;50.884;4.346;2023-02-28T02:11:17;4.70;99.90
30893;DHT22;17595;50.884;4.346;2023-02-28T02:19:08;4.70;99.90
30893;DHT22;17595;50.884;4.346;2023-02-28T02:24:52;4.70;99.90
30893;DHT22;17595;50.884;4.346;2023-02-28T02:35:51;4.70;99.90
30893;DHT22;17595;50.884;4.346;2023-02-28T02:41:00;4.60;99.90
30893;DHT22;17595;50.884;4.346;2023-02-28T02:46:34;4.60;99.90
30893;DHT22;17595;50.884;4.346;2023-02-28T02:49:06;4.60;99.90
30893;DHT22;17595;50.884;4.346;2023-02-28T02:51:33;4.50;99.90
30893;DHT22;17595;50.884;4.346;2023-02-28T02:56:31;4.40;99.90
30893;DHT22;17595;50.884;4.346;2023-02-28T02:59:06;4.40;99.90
30893;DHT22;17595;50.884;4.346;2023-02-28T03:01:34;4.40;99.90
30893;DHT22;17595;50.884;4.346;2023-02-28T03:04:06;4.30;99.90
30893;DHT22;17595;50.884;4.346;2023-02-28T03:06:33;4.30;99.90
30893;DHT22;17595;50.884;4.346;2023-02-28T03:09:00;4.30;99.90
30893;DHT22;17595;50.884;4.346;2023-02-28T03:11:25;4.30;99.90
30893;DHT22;17595;50.884;4.346;2023-02-28T03:25:29;4.20;99.90
30893;DHT22;17595;50.884;4.346;2023-02-28T03:28:19;4.20;99.90
30893;DHT22;17595;50.884;4.346;2023-02-28T03:30:57;4.20;99.90
30893;DHT22;17595;50.884;4.346;2023-02-28T03:33:30;4.20;99.90
30893;DHT22;17595;50.884;4.346;2023-02-28T03:36:02;4.20;99.90
30893;DHT22;17595;50.884;4.346;2023-02-28T03:41:19;4.20;99.90
30893;DHT22;17595;50.884;4.346;2023-02-28T03:43:50;4.20;99.90
30893;DHT22;17595;50.884;4.346;2023-02-28T03:46:20;4.20;99.90
30893;DHT22;17595;50.884;4.346;2023-02-28T03:48:55;4.10;99.90
30893;DHT22;17595;50.884;4.346;2023-02-28T03:51:24;4.10;99.90
30893;DHT22;17595;50.884;4.346;2023-02-28T03:53:53;4.10;99.90
30893;DHT22;17595;50.884;4.346;2023-02-28T03:56:23;4.00;99.90
30893;DHT22;17595;50.884;4.346;2023-02-28T04:01:30;4.00;99.90
30893;DHT22;17595;50.884;4.346;2023-02-28T04:03:57;4.10;99.90
30893;DHT22;17595;50.884;4.346;2023-02-28T04:06:23;4.10;99.90
30893;DHT22;17595;50.884;4.346;2023-02-28T04:08:50;4.10;99.90
30893;DHT22;17595;50.884;4.346;2023-02-28T04:11:32;4.10;99.90
30893;DHT22;17595;50.884;4.346;2023-02-28T04:13:58;4.10;99.90
30893;DHT22;17595;50.884;4.346;2023-02-28T04:16:24;4.10;99.90
30893;DHT22;17595;50.884;4.346;2023-02-28T04:18:49;4.10;99.90
30893;DHT22;17595;50.884;4.346;2023-02-28T04:21:15;4.00;99.90
30893;DHT22;17595;50.884;4.346;2023-02-28T04:23:41;4.10;99.90
30893;DHT22;17595;50.884;4.346;2023-02-28T04:26:07;4.10;99.90
30893;DHT22;17595;50.884;4.346;2023-02-28T04:28:33;4.10;99.90
30893;DHT22;17595;50.884;4.346;2023-02-28T04:31:02;4.20;99.90
30893;DHT22;17595;50.884;4.346;2023-02-28T04:33:28;4.20;99.90
30893;DHT22;17595;50.884;4.346;2023-02-28T04:36:07;4.10;99.90
30893;DHT22;17595;50.884;4.346;2023-02-28T04:38:38;4.10;99.90
30893;DHT22;17595;50.884;4.346;2023-02-28T04:41:04;4.20;99.90
30893;DHT22;17595;50.884;4.346;2023-02-28T04:43:31;4.20;99.90
30893;DHT22;17595;50.884;4.346;2023-02-28T04:46:00;4.20;99.90
30893;DHT22;17595;50.884;4.346;2023-02-28T04:48:28;4.10;99.90
30893;DHT22;17595;50.884;4.346;2023-02-28T04:50:55;4.10;99.90
30893;DHT22;17595;50.884;4.346;2023-02-28T04:53:21;4.00;99.90
30893;DHT22;17595;50.884;4.346;2023-02-28T04:55:46;4.00;99.90
30893;DHT22;17595;50.884;4.346;2023-02-28T04:58:15;4.10;99.90
30893;DHT22;17595;50.884;4.346;2023-02-28T05:00:41;4.10;99.90
30893;DHT22;17595;50.884;4.346;2023-02-28T05:03:07;4.10;99.90
30893;DHT22;17595;50.884;4.346;2023-02-28T05:05:32;4.20;99.90
30893;DHT22;17595;50.884;4.346;2023-02-28T05:07:58;4.10;99.90
30893;DHT22;17595;50.884;4.346;2023-02-28T05:10:24;4.10;99.90
30893;DHT22;17595;50.884;4.346;2023-02-28T05:12:50;4.10;99.90
30893;DHT22;17595;50.884;4.346;2023-02-28T05:15:16;4.20;99.90
30893;DHT22;17595;50.884;4.346;2023-02-28T05:17:42;4.30;99.90
30893;DHT22;17595;50.884;4.346;2023-02-28T05:20:09;4.30;99.90
30893;DHT22;17595;50.884;4.346;2023-02-28T05:22:36;4.50;99.90
30893;DHT22;17595;50.884;4.346;2023-02-28T05:25:03;4.60;99.90
30893;DHT22;17595;50.884;4.346;2023-02-28T05:27:30;4.60;99.90
30893;DHT22;17595;50.884;4.346;2023-02-28T05:29:56;4.60;99.90
30893;DHT22;17595;50.884;4.346;2023-02-28T05:32:21;4.70;99.90
30893;DHT22;17595;50.884;4.346;2023-02-28T05:34:47;4.70;99.90
30893;DHT22;17595;50.884;4.346;2023-02-28T05:37:13;4.70;99.90
30893;DHT22;17595;50.884;4.346;2023-02-28T05:39:39;4.80;99.90
30893;DHT22;17595;50.884;4.346;2023-02-28T05:42:05;4.80;99.90
30893;DHT22;17595;50.884;4.346;2023-02-28T05:44:31;4.80;99.90
30893;DHT22;17595;50.884;4.346;2023-02-28T05:46:57;4.80;99.90
30893;DHT22;17595;50.884;4.346;2023-02-28T05:49:23;4.80;99.90
30893;DHT22;17595;50.884;4.346;2023-02-28T05:51:48;4.80;99.90
30893;DHT22;17595;50.884;4.346;2023-02-28T05:54:14;4.80;99.90
30893;DHT22;17595;50.884;4.346;2023-02-28T05:56:40;4.80;99.90
30893;DHT22;17595;50.884;4.346;2023-02-28T05:59:09;4.80;99.90
30893;DHT22;17595;50.884;4.346;2023-02-28T06:01:40;4.90;99.90
30893;DHT22;17595;50.884;4.346;2023-02-28T06:04:08;5.00;99.90
30893;DHT22;17595;50.884;4.346;2023-02-28T06:06:34;5.00;99.90
30893;DHT22;17595;50.884;4.346;2023-02-28T06:09:01;4.90;99.90
30893;DHT22;17595;50.884;4.346;2023-02-28T06:11:27;4.80;99.90
30893;DHT22;17595;50.884;4.346;2023-02-28T06:13:54;4.80;99.90
30893;DHT22;17595;50.884;4.346;2023-02-28T06:16:21;4.80;99.90
30893;DHT22;17595;50.884;4.346;2023-02-28T06:18:46;4.80;99.90
30893;DHT22;17595;50.884;4.346;2023-02-28T06:21:12;4.80;99.90
30893;DHT22;17595;50.884;4.346;2023-02-28T06:23:38;4.80;99.90
30893;DHT22;17595;50.884;4.346;2023-02-28T06:26:04;4.80;99.90
30893;DHT22;17595;50.884;4.346;2023-02-28T06:28:31;4.70;99.90
30893;DHT22;17595;50.884;4.346;2023-02-28T06:30:57;4.70;99.90
30893;DHT22;17595;50.884;4.346;2023-02-28T06:33:22;4.80;99.90
30893;DHT22;17595;50.884;4.346;2023-02-28T06:35:51;5.00;99.90
30893;DHT22;17595;50.884;4.346;2023-02-28T06:38:17;5.10;99.90
30893;DHT22;17595;50.884;4.346;2023-02-28T06:40:43;5.10;99.90
30893;DHT22;17595;50.884;4.346;2023-02-28T06:43:09;5.10;99.90
30893;DHT22;17595;50.884;4.346;2023-02-28T06:45:42;5.00;99.90
30893;DHT22;17595;50.884;4.346;2023-02-28T06:48:07;5.10;99.90
30893;DHT22;17595;50.884;4.346;2023-02-28T06:50:33;5.10;99.90
30893;DHT22;17595;50.884;4.346;2023-02-28T06:52:58;5.20;99.90
30893;DHT22;17595;50.884;4.346;2023-02-28T06:55:24;5.20;99.90
30893;DHT22;17595;50.884;4.346;2023-02-28T06:57:50;5.20;99.90
30893;DHT22;17595;50.884;4.346;2023-02-28T07:00:16;5.30;99.90
30893;DHT22;17595;50.884;4.346;2023-02-28T07:02:42;5.30;99.90
30893;DHT22;17595;50.884;4.346;2023-02-28T07:05:07;5.30;99.90
30893;DHT22;17595;50.884;4.346;2023-02-28T07:07:33;5.50;99.90
30893;DHT22;17595;50.884;4.346;2023-02-28T07:10:01;5.50;99.90
30893;DHT22;17595;50.884;4.346;2023-02-28T07:12:27;5.60;99.90
30893;DHT22;17595;50.884;4.346;2023-02-28T07:14:52;5.50;99.90
30893;DHT22;17595;50.884;4.346;2023-02-28T07:17:19;5.40;99.90
30893;DHT22;17595;50.884;4.346;2023-02-28T07:19:45;5.50;99.90
30893;DHT22;17595;50.884;4.346;2023-02-28T07:22:11;5.50;99.90
30893;DHT22;17595;50.884;4.346;2023-02-28T07:24:36;5.40;99.90
30893;DHT22;17595;50.884;4.346;2023-02-28T07:27:03;5.40;99.90
30893;DHT22;17595;50.884;4.346;2023-02-28T07:29:29;5.20;99.90
30893;DHT22;17595;50.884;4.346;2023-02-28T07:31:55;5.20;99.90
30893;DHT22;17595;50.884;4.346;2023-02-28T07:34:21;5.30;99.90
30893;DHT22;17595;50.884;4.346;2023-02-28T07:36:47;5.30;99.90
30893;DHT22;17595;50.884;4.346;2023-02-28T07:39:13;5.40;99.90
30893;DHT22;17595;50.884;4.346;2023-02-28T07:41:38;5.50;99.90
30893;DHT22;17595;50.884;4.346;2023-02-28T07:44:09;5.50;99.90
30893;DHT22;17595;50.884;4.346;2023-02-28T07:46:35;5.50;99.90
30893;DHT22;17595;50.884;4.346;2023-02-28T07:49:01;5.40;99.90
30893;DHT22;17595;50.884;4.346;2023-02-28T07:51:28;5.40;99.90
30893;DHT22;17595;50.884;4.346;2023-02-28T07:53:54;5.40;99.90
30893;DHT22;17595;50.884;4.346;2023-02-28T07:56:20;5.50;99.90
30893;DHT22;17595;50.884;4.346;2023-02-28T07:58:45;5.50;99.90
30893;DHT22;17595;50.884;4.346;2023-02-28T08:01:11;5.60;99.90
30893;DHT22;17595;50.884;4.346;2023-02-28T08:03:38;5.60;99.90
30893;DHT22;17595;50.884;4.346;2023-02-28T08:06:06;5.60;99.90
30893;DHT22;17595;50.884;4.346;2023-02-28T08:08:32;5.60;99.90
30893;DHT22;17595;50.884;4.346;2023-02-28T08:10:59;5.60;99.90
30893;DHT22;17595;50.884;4.346;2023-02-28T08:13:26;5.60;99.90
30893;DHT22;17595;50.884;4.346;2023-02-28T08:15:53;5.80;99.90
30893;DHT22;17595;50.884;4.346;2023-02-28T08:18:20;5.80;99.90
30893;DHT22;17595;50.884;4.346;2023-02-28T08:20:46;5.70;99.90
30893;DHT22;17595;50.884;4.346;2023-02-28T08:23:12;5.70;99.90
30893;DHT22;17595;50.884;4.346;2023-02-28T08:25:38;6.00;99.90
30893;DHT22;17595;50.884;4.346;2023-02-28T08:28:03;6.10;99.90
30893;DHT22;17595;50.884;4.346;2023-02-28T08:30:29;6.30;99.90
30893;DHT22;17595;50.884;4.346;2023-02-28T08:32:55;6.30;99.90
30893;DHT22;17595;50.884;4.346;2023-02-28T08:35:21;6.50;99.90
30893;DHT22;17595;50.884;4.346;2023-02-28T08:37:50;6.50;99.90
30893;DHT22;17595;50.884;4.346;2023-02-28T08:40:16;6.60;99.90
30893;DHT22;17595;50.884;4.346;2023-02-28T08:42:47;6.60;99.90
30893;DHT22;17595;50.884;4.346;2023-02-28T08:45:14;6.70;99.90
30893;DHT22;17595;50.884;4.346;2023-02-28T08:47:40;6.80;99.90
30893;DHT22;17595;50.884;4.346;2023-02-28T08:50:06;6.80;99.90
30893;DHT22;17595;50.884;4.346;2023-02-28T08:52:32;6.80;99.90
30893;DHT22;17595;50.884;4.346;2023-02-28T08:54:58;6.90;99.90
30893;DHT22;17595;50.884;4.346;2023-02-28T08:57:24;6.70;99.90
30893;DHT22;17595;50.884;4.346;2023-02-28T08:59:52;6.70;99.90
30893;DHT22;17595;50.884;4.346;2023-02-28T09:02:18;6.70;99.90
30893;DHT22;17595;50.884;4.346;2023-02-28T09:04:43;6.70;99.90
30893;DHT22;17595;50.884;4.346;2023-02-28T09:07:11;6.60;99.90
30893;DHT22;17595;50.884;4.346;2023-02-28T09:09:37;6.70;99.90
30893;DHT22;17595;50.884;4.346;2023-02-28T09:12:03;6.60;99.90
30893;DHT22;17595;50.884;4.346;2023-02-28T09:14:29;6.50;99.90
30893;DHT22;17595;50.884;4.346;2023-02-28T09:16:55;6.50;99.90
30893;DHT22;17595;50.884;4.346;2023-02-28T09:19:20;6.40;99.90
30893;DHT22;17595;50.884;4.346;2023-02-28T09:21:46;6.50;99.90
30893;DHT22;17595;50.884;4.346;2023-02-28T09:24:11;6.60;99.90
30893;DHT22;17595;50.884;4.346;2023-02-28T09:26:39;6.70;99.90
30893;DHT22;17595;50.884;4.346;2023-02-28T09:29:05;6.90;99.90
30893;DHT22;17595;50.884;4.346;2023-02-28T09:31:32;6.90;99.90
30893;DHT22;17595;50.884;4.346;2023-02-28T09:33:58;6.90;99.90
30893;DHT22;17595;50.884;4.346;2023-02-28T09:36:26;6.80;99.90
30893;DHT22;17595;50.884;4.346;2023-02-28T09:38:52;6.80;99.90
30893;DHT22;17595;50.884;4.346;2023-02-28T09:41:21;6.60;99.90
30893;DHT22;17595;50.884;4.346;2023-02-28T09:43:50;6.50;99.90
30893;DHT22;17595;50.884;4.346;2023-02-28T09:48:46;6.50;99.90
30893;DHT22;17595;50.884;4.346;2023-02-28T09:53:56;6.40;99.90
30893;DHT22;17595;50.884;4.346;2023-02-28T09:56:28;6.40;99.90
30893;DHT22;17595;50.884;4.346;2023-02-28T09:59:00;6.50;99.90
30893;DHT22;17595;50.884;4.346;2023-02-28T10:01:43;6.60;99.90
30893;DHT22;17595;50.884;4.346;2023-02-28T10:04:53;6.60;99.90
30893;DHT22;17595;50.884;4.346;2023-02-28T10:10:18;6.60;99.90
30893;DHT22;17595;50.884;4.346;2023-02-28T10:12:47;6.60;99.90
30893;DHT22;17595;50.884;4.346;2023-02-28T10:15:16;6.70;99.90
30893;DHT22;17595;50.884;4.346;2023-02-28T10:17:45;6.80;99.90
30893;DHT22;17595;50.884;4.346;2023-02-28T10:20:15;6.90;99.90
30893;DHT22;17595;50.884;4.346;2023-02-28T10:25:46;6.70;99.90
30893;DHT22;17595;50.884;4.346;2023-02-28T10:28:17;6.70;99.90
30893;DHT22;17595;50.884;4.346;2023-02-28T10:30:48;6.70;99.90
30893;DHT22;17595;50.884;4.346;2023-02-28T10:35:49;6.70;99.90
30893;DHT22;17595;50.884;4.346;2023-02-28T10:38:27;6.80;99.90
30893;DHT22;17595;50.884;4.346;2023-02-28T10:41:08;7.00;99.90
30893;DHT22;17595;50.884;4.346;2023-02-28T10:43:35;7.00;99.90
30893;DHT22;17595;50.884;4.346;2023-02-28T10:48:47;6.80;99.90
30893;DHT22;17595;50.884;4.346;2023-02-28T10:51:18;6.80;99.70
30893;DHT22;17595;50.884;4.346;2023-02-28T10:53:47;6.80;99.50
30893;DHT22;17595;50.884;4.346;2023-02-28T11:03:56;7.00;99.00
30893;DHT22;17595;50.884;4.346;2023-02-28T11:06:26;6.90;99.10
30893;DHT22;17595;50.884;4.346;2023-02-28T11:08:56;7.00;99.50
30893;DHT22;17595;50.884;4.346;2023-02-28T11:11:25;7.20;99.20
30893;DHT22;17595;50.884;4.346;2023-02-28T11:13:53;7.40;99.00
30893;DHT22;17595;50.884;4.346;2023-02-28T11:16:20;7.20;98.80
30893;DHT22;17595;50.884;4.346;2023-02-28T11:18:50;7.40;99.00
30893;DHT22;17595;50.884;4.346;2023-02-28T11:21:34;7.10;97.80
30893;DHT22;17595;50.884;4.346;2023-02-28T11:24:40;6.90;98.10
30893;DHT22;17595;50.884;4.346;2023-02-28T11:27:46;6.80;98.70
30893;DHT22;17595;50.884;4.346;2023-02-28T11:30:36;6.80;99.00
30893;DHT22;17595;50.884;4.346;2023-02-28T11:33:44;6.90;99.30
30893;DHT22;17595;50.884;4.346;2023-02-28T11:36:27;7.10;99.60
30893;DHT22;17595;50.884;4.346;2023-02-28T11:38:55;7.20;99.30
30893;DHT22;17595;50.884;4.346;2023-02-28T11:46:42;7.10;99.20
30893;DHT22;17595;50.884;4.346;2023-02-28T12:03:14;7.10;98.00
30893;DHT22;17595;50.884;4.346;2023-02-28T12:06:09;7.30;98.20
30893;DHT22;17595;50.884;4.346;2023-02-28T12:08:46;7.30;97.50
30893;DHT22;17595;50.884;4.346;2023-02-28T12:14:14;7.20;98.30
30893;DHT22;17595;50.884;4.346;2023-02-28T12:19:56;7.40;98.60
30893;DHT22;17595;50.884;4.346;2023-02-28T12:25:21;7.50;97.70
30893;DHT22;17595;50.884;4.346;2023-02-28T12:27:48;7.60;97.30
30893;DHT22;17595;50.884;4.346;2023-02-28T12:32:44;7.50;97.80
30893;DHT22;17595;50.884;4.346;2023-02-28T12:37:46;7.20;97.50
30893;DHT22;17595;50.884;4.346;2023-02-28T12:40:19;7.50;97.70
30893;DHT22;17595;50.884;4.346;2023-02-28T12:42:50;7.50;97.50
30893;DHT22;17595;50.884;4.346;2023-02-28T12:45:20;7.40;97.80
30893;DHT22;17595;50.884;4.346;2023-02-28T12:47:58;7.50;97.00
30893;DHT22;17595;50.884;4.346;2023-02-28T12:50:26;7.60;96.80
30893;DHT22;17595;50.884;4.346;2023-02-28T12:53:06;7.70;96.60
30893;DHT22;17595;50.884;4.346;2023-02-28T12:56:24;7.70;96.60
30893;DHT22;17595;50.884;4.346;2023-02-28T12:58:58;7.70;96.90
30893;DHT22;17595;50.884;4.346;2023-02-28T13:09:39;7.70;95.70
30893;DHT22;17595;50.884;4.346;2023-02-28T13:12:15;7.60;96.00
30893;DHT22;17595;50.884;4.346;2023-02-28T13:14:42;7.80;95.80
30893;DHT22;17595;50.884;4.346;2023-02-28T13:22:43;7.80;96.00
30893;DHT22;17595;50.884;4.346;2023-02-28T13:28:02;7.60;95.40
30893;DHT22;17595;50.884;4.346;2023-02-28T13:36:10;7.50;95.00
30893;DHT22;17595;50.884;4.346;2023-02-28T13:38:41;7.60;96.00
30893;DHT22;17595;50.884;4.346;2023-02-28T14:05:17;7.70;94.80
30893;DHT22;17595;50.884;4.346;2023-02-28T14:07:54;7.70;94.50
30893;DHT22;17595;50.884;4.346;2023-02-28T14:10:34;7.80;94.50
30893;DHT22;17595;50.884;4.346;2023-02-28T14:15:46;7.60;95.10
30893;DHT22;17595;50.884;4.346;2023-02-28T14:18:23;7.50;95.00
30893;DHT22;17595;50.884;4.346;2023-02-28T14:20:53;7.60;95.20
30893;DHT22;17595;50.884;4.346;2023-02-28T14:26:33;7.80;94.80
30893;DHT22;17595;50.884;4.346;2023-02-28T14:32:06;7.70;94.60
30893;DHT22;17595;50.884;4.346;2023-02-28T14:34:53;7.70;94.80
30893;DHT22;17595;50.884;4.346;2023-02-28T14:37:26;7.70;94.70
30893;DHT22;17595;50.884;4.346;2023-02-28T14:39:53;7.70;95.30
30893;DHT22;17595;50.884;4.346;2023-02-28T14:42:33;7.70;95.20
30893;DHT22;17595;50.884;4.346;2023-02-28T14:44:59;7.90;95.40
30893;DHT22;17595;50.884;4.346;2023-02-28T14:47:30;8.00;95.30
30893;DHT22;17595;50.884;4.346;2023-02-28T14:49:58;8.00;95.00
30893;DHT22;17595;50.884;4.346;2023-02-28T14:52:28;8.00;94.70
30893;DHT22;17595;50.884;4.346;2023-02-28T14:55:05;7.80;94.80
30893;DHT22;17595;50.884;4.346;2023-02-28T14:57:41;7.90;94.60
30893;DHT22;17595;50.884;4.346;2023-02-28T15:00:27;8.00;95.20
30893;DHT22;17595;50.884;4.346;2023-02-28T15:02:54;8.00;95.80
30893;DHT22;17595;50.884;4.346;2023-02-28T15:05:28;8.00;95.00
30893;DHT22;17595;50.884;4.346;2023-02-28T15:08:13;8.10;94.50
30893;DHT22;17595;50.884;4.346;2023-02-28T15:13:30;8.10;95.20
30893;DHT22;17595;50.884;4.346;2023-02-28T15:16:02;7.90;95.10
30893;DHT22;17595;50.884;4.346;2023-02-28T15:21:12;7.80;95.70
30893;DHT22;17595;50.884;4.346;2023-02-28T15:23:40;7.90;95.10
30893;DHT22;17595;50.884;4.346;2023-02-28T15:26:06;7.70;94.60
30893;DHT22;17595;50.884;4.346;2023-02-28T15:28:32;7.60;95.40
30893;DHT22;17595;50.884;4.346;2023-02-28T15:31:03;7.50;95.70
30893;DHT22;17595;50.884;4.346;2023-02-28T15:33:58;7.50;95.90
30893;DHT22;17595;50.884;4.346;2023-02-28T15:36:30;7.60;95.80
30893;DHT22;17595;50.884;4.346;2023-02-28T15:38:59;7.70;96.10
30893;DHT22;17595;50.884;4.346;2023-02-28T15:41:30;7.80;95.90
30893;DHT22;17595;50.884;4.346;2023-02-28T15:44:28;7.80;95.80
30893;DHT22;17595;50.884;4.346;2023-02-28T15:47:03;7.80;96.10
30893;DHT22;17595;50.884;4.346;2023-02-28T15:49:37;7.80;96.10
30893;DHT22;17595;50.884;4.346;2023-02-28T15:52:03;7.80;96.00
30893;DHT22;17595;50.884;4.346;2023-02-28T15:54:33;7.80;96.00
30893;DHT22;17595;50.884;4.346;2023-02-28T15:57:14;7.80;96.10
30893;DHT22;17595;50.884;4.346;2023-02-28T15:59:50;7.90;96.30
30893;DHT22;17595;50.884;4.346;2023-02-28T16:02:19;7.90;96.30
30893;DHT22;17595;50.884;4.346;2023-02-28T16:07:25;7.80;95.50
30893;DHT22;17595;50.884;4.346;2023-02-28T16:09:51;7.80;95.80
30893;DHT22;17595;50.884;4.346;2023-02-28T16:12:19;7.70;95.90
30893;DHT22;17595;50.884;4.346;2023-02-28T16:14:46;7.70;96.30
30893;DHT22;17595;50.884;4.346;2023-02-28T16:17:27;7.70;96.20
30893;DHT22;17595;50.884;4.346;2023-02-28T16:19:54;7.80;96.40
30893;DHT22;17595;50.884;4.346;2023-02-28T16:22:19;7.70;96.20
30893;DHT22;17595;50.884;4.346;2023-02-28T16:24:45;7.50;96.10
30893;DHT22;17595;50.884;4.346;2023-02-28T16:29:41;7.50;96.40
30893;DHT22;17595;50.884;4.346;2023-02-28T16:32:07;7.60;96.20
30893;DHT22;17595;50.884;4.346;2023-02-28T16:34:33;7.70;96.50
30893;DHT22;17595;50.884;4.346;2023-02-28T16:36:59;7.70;96.50
30893;DHT22;17595;50.884;4.346;2023-02-28T16:39:24;7.60;96.40
30893;DHT22;17595;50.884;4.346;2023-02-28T16:41:51;7.70;96.40
30893;DHT22;17595;50.884;4.346;2023-02-28T16:44:29;7.60;96.70
30893;DHT22;17595;50.884;4.346;2023-02-28T16:46:56;7.60;96.50
30893;DHT22;17595;50.884;4.346;2023-02-28T16:49:22;7.60;96.80
30893;DHT22;17595;50.884;4.346;2023-02-28T16:51:48;7.60;97.10
30893;DHT22;17595;50.884;4.346;2023-02-28T16:54:13;7.60;97.00
30893;DHT22;17595;50.884;4.346;2023-02-28T16:56:44;7.60;96.90
30893;DHT22;17595;50.884;4.346;2023-02-28T16:59:10;7.60;96.80
30893;DHT22;17595;50.884;4.346;2023-02-28T17:01:36;7.60;97.00
30893;DHT22;17595;50.884;4.346;2023-02-28T17:04:02;7.60;97.00
30893;DHT22;17595;50.884;4.346;2023-02-28T17:06:29;7.50;97.10
30893;DHT22;17595;50.884;4.346;2023-02-28T17:08:56;7.50;97.30
30893;DHT22;17595;50.884;4.346;2023-02-28T17:11:23;7.60;97.20
30893;DHT22;17595;50.884;4.346;2023-02-28T17:13:50;7.60;97.20
30893;DHT22;17595;50.884;4.346;2023-02-28T17:16:25;7.50;97.30
30893;DHT22;17595;50.884;4.346;2023-02-28T17:18:53;7.60;97.40
30893;DHT22;17595;50.884;4.346;2023-02-28T17:21:19;7.50;97.40
30893;DHT22;17595;50.884;4.346;2023-02-28T17:23:45;7.40;97.50
30893;DHT22;17595;50.884;4.346;2023-02-28T17:26:15;7.30;97.80
30893;DHT22;17595;50.884;4.346;2023-02-28T17:28:43;7.30;97.70
30893;DHT22;17595;50.884;4.346;2023-02-28T17:31:09;7.30;97.90
30893;DHT22;17595;50.884;4.346;2023-02-28T17:33:35;7.20;97.90
30893;DHT22;17595;50.884;4.346;2023-02-28T17:36:00;7.20;98.10
30893;DHT22;17595;50.884;4.346;2023-02-28T17:38:27;7.20;98.20
30893;DHT22;17595;50.884;4.346;2023-02-28T17:40:52;7.20;98.80
30893;DHT22;17595;50.884;4.346;2023-02-28T17:43:23;7.10;98.40
30893;DHT22;17595;50.884;4.346;2023-02-28T17:45:48;7.10;99.00
30893;DHT22;17595;50.884;4.346;2023-02-28T17:48:14;7.10;99.70
30893;DHT22;17595;50.884;4.346;2023-02-28T17:50:40;7.10;99.90
30893;DHT22;17595;50.884;4.346;2023-02-28T17:53:06;7.10;99.90
30893;DHT22;17595;50.884;4.346;2023-02-28T17:55:31;7.10;99.90
30893;DHT22;17595;50.884;4.346;2023-02-28T17:57:58;7.00;99.90
30893;DHT22;17595;50.884;4.346;2023-02-28T18:00:24;7.00;99.90
30893;DHT22;17595;50.884;4.346;2023-02-28T18:02:50;6.90;99.90
30893;DHT22;17595;50.884;4.346;2023-02-28T18:05:16;6.90;99.90
30893;DHT22;17595;50.884;4.346;2023-02-28T18:07:42;6.90;99.90
30893;DHT22;17595;50.884;4.346;2023-02-28T18:10:19;6.90;99.90
30893;DHT22;17595;50.884;4.346;2023-02-28T18:12:50;6.80;99.90
30893;DHT22;17595;50.884;4.346;2023-02-28T18:15:17;6.80;99.90
30893;DHT22;17595;50.884;4.346;2023-02-28T18:17:43;6.70;99.90
30893;DHT22;17595;50.884;4.346;2023-02-28T18:20:10;6.60;99.90
30893;DHT22;17595;50.884;4.346;2023-02-28T18:22:36;6.60;99.90
30893;DHT22;17595;50.884;4.346;2023-02-28T18:25:06;6.50;99.90
30893;DHT22;17595;50.884;4.346;2023-02-28T18:27:35;6.50;99.90
30893;DHT22;17595;50.884;4.346;2023-02-28T18:30:01;6.50;99.90
30893;DHT22;17595;50.884;4.346;2023-02-28T18:32:28;6.50;99.90
30893;DHT22;17595;50.884;4.346;2023-02-28T18:34:54;6.40;99.90
30893;DHT22;17595;50.884;4.346;2023-02-28T18:37:19;6.40;99.90
30893;DHT22;17595;50.884;4.346;2023-02-28T18:39:46;6.40;99.90
30893;DHT22;17595;50.884;4.346;2023-02-28T18:42:11;6.40;99.90